sensor_id;sensor_type;location;lat;lon;timestamp;P1;durP1;ratioP1;P2;durP2;ratioP2
16593;SDS011;8410;52.532;13.336;2022-11-10T00:01:55;3.90;;;2.10;;
16593;SDS011;8410;52.532;13.336;2022-11-10T00:04:23;5.17;;;2.23;;
16593;SDS011;8410;52.532;13.336;2022-11-10T00:06:50;6.90;;;3.63;;
16593;SDS011;8410;52.532;13.336;2022-11-10T00:09:19;6.20;;;1.73;;
16593;SDS011;8410;52.532;13.336;2022-11-10T00:11:47;6.03;;;1.97;;
16593;SDS011;8410;52.532;13.336;2022-11-10T00:14:14;5.03;;;2.03;;
16593;SDS011;8410;52.532;13.336;2022-11-10T00:16:59;5.97;;;2.50;;
16593;SDS011;8410;52.532;13.336;2022-11-10T00:19:30;4.30;;;2.10;;
16593;SDS011;8410;52.532;13.336;2022-11-10T00:21:58;6.40;;;2.50;;
16593;SDS011;8410;52.532;13.336;2022-11-10T00:24:27;7.60;;;3.20;;
16593;SDS011;8410;52.532;13.336;2022-11-10T00:26:55;5.37;;;1.90;;
16593;SDS011;8410;52.532;13.336;2022-11-10T00:29:23;6.67;;;2.70;;
16593;SDS011;8410;52.532;13.336;2022-11-10T00:31:50;6.23;;;2.30;;
16593;SDS011;8410;52.532;13.336;2022-11-10T00:34:17;4.43;;;1.87;;
16593;SDS011;8410;52.532;13.336;2022-11-10T00:36:45;4.13;;;1.60;;
16593;SDS011;8410;52.532;13.336;2022-11-10T00:39:12;4.50;;;2.27;;
16593;SDS011;8410;52.532;13.336;2022-11-10T00:41:41;4.33;;;1.37;;
16593;SDS011;8410;52.532;13.336;2022-11-10T00:44:08;4.67;;;1.90;;
16593;SDS011;8410;52.532;13.336;2022-11-10T00:46:36;3.77;;;1.40;;
16593;SDS011;8410;52.532;13.336;2022-11-10T00:49:03;6.07;;;1.87;;
16593;SDS011;8410;52.532;13.336;2022-11-10T00:51:31;8.10;;;2.30;;
16593;SDS011;8410;52.532;13.336;2022-11-10T00:53:58;7.53;;;1.67;;
16593;SDS011;8410;52.532;13.336;2022-11-10T00:56:26;3.33;;;1.40;;
16593;SDS011;8410;52.532;13.336;2022-11-10T00:58:54;6.10;;;1.90;;
16593;SDS011;8410;52.532;13.336;2022-11-10T01:01:23;4.20;;;2.30;;
16593;SDS011;8410;52.532;13.336;2022-11-10T01:03:52;6.13;;;2.00;;
16593;SDS011;8410;52.532;13.336;2022-11-10T01:06:20;4.53;;;1.90;;
16593;SDS011;8410;52.532;13.336;2022-11-10T01:08:48;7.00;;;1.90;;
16593;SDS011;8410;52.532;13.336;2022-11-10T01:11:16;6.10;;;1.83;;
16593;SDS011;8410;52.532;13.336;2022-11-10T01:13:45;4.67;;;1.97;;
16593;SDS011;8410;52.532;13.336;2022-11-10T01:16:15;4.67;;;1.73;;
16593;SDS011;8410;52.532;13.336;2022-11-10T01:18:47;5.10;;;1.93;;
16593;SDS011;8410;52.532;13.336;2022-11-10T01:21:15;5.33;;;2.10;;
16593;SDS011;8410;52.532;13.336;2022-11-10T01:23:43;4.17;;;2.07;;
16593;SDS011;8410;52.532;13.336;2022-11-10T01:26:11;6.00;;;1.87;;
16593;SDS011;8410;52.532;13.336;2022-11-10T01:28:39;7.33;;;1.90;;
16593;SDS011;8410;52.532;13.336;2022-11-10T01:31:07;6.30;;;2.33;;
16593;SDS011;8410;52.532;13.336;2022-11-10T01:33:38;6.80;;;2.33;;
16593;SDS011;8410;52.532;13.336;2022-11-10T01:36:06;5.53;;;1.50;;
16593;SDS011;8410;52.532;13.336;2022-11-10T01:38:37;4.93;;;1.80;;
16593;SDS011;8410;52.532;13.336;2022-11-10T01:41:06;8.50;;;2.07;;
16593;SDS011;8410;52.532;13.336;2022-11-10T01:43:35;3.60;;;1.80;;
16593;SDS011;8410;52.532;13.336;2022-11-10T01:46:03;5.03;;;1.87;;
16593;SDS011;8410;52.532;13.336;2022-11-10T01:48:32;3.83;;;2.03;;
16593;SDS011;8410;52.532;13.336;2022-11-10T01:51:05;5.23;;;1.60;;
16593;SDS011;8410;52.532;13.336;2022-11-10T01:53:37;6.20;;;2.03;;
16593;SDS011;8410;52.532;13.336;2022-11-10T01:56:08;4.87;;;1.80;;
16593;SDS011;8410;52.532;13.336;2022-11-10T01:58:39;4.43;;;1.80;;
16593;SDS011;8410;52.532;13.336;2022-11-10T02:01:13;5.27;;;1.57;;
16593;SDS011;8410;52.532;13.336;2022-11-10T02:03:42;5.13;;;1.83;;
16593;SDS011;8410;52.532;13.336;2022-11-10T02:06:13;5.00;;;1.60;;
16593;SDS011;8410;52.532;13.336;2022-11-10T02:08:42;5.23;;;1.60;;
16593;SDS011;8410;52.532;13.336;2022-11-10T02:11:10;4.30;;;1.80;;
16593;SDS011;8410;52.532;13.336;2022-11-10T02:13:38;4.70;;;1.37;;
16593;SDS011;8410;52.532;13.336;2022-11-10T02:16:06;7.10;;;1.97;;
16593;SDS011;8410;52.532;13.336;2022-11-10T02:18:35;5.57;;;1.83;;
16593;SDS011;8410;52.532;13.336;2022-11-10T02:21:04;5.83;;;1.87;;
16593;SDS011;8410;52.532;13.336;2022-11-10T02:23:42;5.13;;;1.90;;
16593;SDS011;8410;52.532;13.336;2022-11-10T02:26:15;4.97;;;1.80;;
16593;SDS011;8410;52.532;13.336;2022-11-10T02:28:45;5.67;;;1.70;;
16593;SDS011;8410;52.532;13.336;2022-11-10T02:31:12;5.13;;;1.97;;
16593;SDS011;8410;52.532;13.336;2022-11-10T02:33:40;4.10;;;1.37;;
16593;SDS011;8410;52.532;13.336;2022-11-10T02:36:09;3.83;;;1.90;;
16593;SDS011;8410;52.532;13.336;2022-11-10T02:38:37;5.17;;;1.70;;
16593;SDS011;8410;52.532;13.336;2022-11-10T02:41:05;3.73;;;1.70;;
16593;SDS011;8410;52.532;13.336;2022-11-10T02:43:33;4.03;;;1.80;;
16593;SDS011;8410;52.532;13.336;2022-11-10T02:46:02;4.63;;;2.07;;
16593;SDS011;8410;52.532;13.336;2022-11-10T02:48:30;6.90;;;2.10;;
16593;SDS011;8410;52.532;13.336;2022-11-10T02:50:57;5.07;;;1.57;;
16593;SDS011;8410;52.532;13.336;2022-11-10T02:53:26;4.70;;;1.90;;
16593;SDS011;8410;52.532;13.336;2022-11-10T02:55:54;6.23;;;2.10;;
16593;SDS011;8410;52.532;13.336;2022-11-10T02:58:21;5.33;;;1.70;;
16593;SDS011;8410;52.532;13.336;2022-11-10T03:00:49;4.23;;;1.63;;
16593;SDS011;8410;52.532;13.336;2022-11-10T03:03:16;7.00;;;2.20;;
16593;SDS011;8410;52.532;13.336;2022-11-10T03:05:44;5.93;;;2.10;;
16593;SDS011;8410;52.532;13.336;2022-11-10T03:08:11;3.47;;;1.63;;
16593;SDS011;8410;52.532;13.336;2022-11-10T03:10:40;7.80;;;2.53;;
16593;SDS011;8410;52.532;13.336;2022-11-10T03:13:08;5.93;;;1.80;;
16593;SDS011;8410;52.532;13.336;2022-11-10T03:15:35;5.53;;;2.00;;
16593;SDS011;8410;52.532;13.336;2022-11-10T03:18:03;6.00;;;1.73;;
16593;SDS011;8410;52.532;13.336;2022-11-10T03:20:31;6.43;;;1.97;;
16593;SDS011;8410;52.532;13.336;2022-11-10T03:22:59;4.27;;;1.73;;
16593;SDS011;8410;52.532;13.336;2022-11-10T03:25:27;5.63;;;1.90;;
16593;SDS011;8410;52.532;13.336;2022-11-10T03:27:56;6.27;;;1.87;;
16593;SDS011;8410;52.532;13.336;2022-11-10T03:30:24;8.30;;;2.10;;
16593;SDS011;8410;52.532;13.336;2022-11-10T03:32:51;5.87;;;1.93;;
16593;SDS011;8410;52.532;13.336;2022-11-10T03:35:18;6.00;;;2.00;;
16593;SDS011;8410;52.532;13.336;2022-11-10T03:37:46;6.23;;;2.07;;
16593;SDS011;8410;52.532;13.336;2022-11-10T03:40:14;3.63;;;1.80;;
16593;SDS011;8410;52.532;13.336;2022-11-10T03:42:41;6.23;;;2.20;;
16593;SDS011;8410;52.532;13.336;2022-11-10T03:45:11;6.33;;;2.10;;
16593;SDS011;8410;52.532;13.336;2022-11-10T03:47:39;4.40;;;1.77;;
16593;SDS011;8410;52.532;13.336;2022-11-10T03:50:07;5.10;;;2.17;;
16593;SDS011;8410;52.532;13.336;2022-11-10T03:52:37;5.57;;;2.43;;
16593;SDS011;8410;52.532;13.336;2022-11-10T03:55:05;6.40;;;2.03;;
16593;SDS011;8410;52.532;13.336;2022-11-10T03:57:33;6.60;;;2.17;;
16593;SDS011;8410;52.532;13.336;2022-11-10T04:00:00;6.63;;;2.10;;
16593;SDS011;8410;52.532;13.336;2022-11-10T04:02:29;8.07;;;2.37;;
16593;SDS011;8410;52.532;13.336;2022-11-10T04:04:57;3.53;;;1.97;;
16593;SDS011;8410;52.532;13.336;2022-11-10T04:07:41;6.43;;;2.07;;
16593;SDS011;8410;52.532;13.336;2022-11-10T04:10:26;4.97;;;1.80;;
16593;SDS011;8410;52.532;13.336;2022-11-10T04:12:54;5.10;;;2.03;;
16593;SDS011;8410;52.532;13.336;2022-11-10T04:15:38;10.13;;;2.50;;
16593;SDS011;8410;52.532;13.336;2022-11-10T04:18:10;5.43;;;2.27;;
16593;SDS011;8410;52.532;13.336;2022-11-10T04:20:52;6.50;;;2.77;;
16593;SDS011;8410;52.532;13.336;2022-11-10T04:23:22;9.97;;;2.30;;
16593;SDS011;8410;52.532;13.336;2022-11-10T04:25:54;8.67;;;2.40;;
16593;SDS011;8410;52.532;13.336;2022-11-10T04:28:42;8.83;;;2.50;;
16593;SDS011;8410;52.532;13.336;2022-11-10T04:31:10;6.63;;;2.40;;
16593;SDS011;8410;52.532;13.336;2022-11-10T04:33:40;7.70;;;2.50;;
16593;SDS011;8410;52.532;13.336;2022-11-10T04:36:09;7.83;;;2.90;;
16593;SDS011;8410;52.532;13.336;2022-11-10T04:38:38;4.17;;;2.03;;
16593;SDS011;8410;52.532;13.336;2022-11-10T04:41:06;7.57;;;2.37;;
16593;SDS011;8410;52.532;13.336;2022-11-10T04:43:34;7.10;;;2.43;;
16593;SDS011;8410;52.532;13.336;2022-11-10T04:46:02;6.97;;;1.97;;
16593;SDS011;8410;52.532;13.336;2022-11-10T04:48:31;6.53;;;2.00;;
16593;SDS011;8410;52.532;13.336;2022-11-10T04:51:03;4.93;;;2.30;;
16593;SDS011;8410;52.532;13.336;2022-11-10T04:53:31;7.87;;;2.87;;
16593;SDS011;8410;52.532;13.336;2022-11-10T04:55:59;6.17;;;2.67;;
16593;SDS011;8410;52.532;13.336;2022-11-10T04:58:26;6.30;;;2.70;;
16593;SDS011;8410;52.532;13.336;2022-11-10T05:00:53;10.03;;;2.73;;
16593;SDS011;8410;52.532;13.336;2022-11-10T05:03:21;6.47;;;2.77;;
16593;SDS011;8410;52.532;13.336;2022-11-10T05:05:49;5.90;;;2.67;;
16593;SDS011;8410;52.532;13.336;2022-11-10T05:08:18;9.07;;;3.00;;
16593;SDS011;8410;52.532;13.336;2022-11-10T05:10:45;5.73;;;2.60;;
16593;SDS011;8410;52.532;13.336;2022-11-10T05:13:13;6.47;;;2.60;;
16593;SDS011;8410;52.532;13.336;2022-11-10T05:15:40;6.73;;;2.50;;
16593;SDS011;8410;52.532;13.336;2022-11-10T05:18:07;8.43;;;2.80;;
16593;SDS011;8410;52.532;13.336;2022-11-10T05:20:35;6.73;;;2.30;;
16593;SDS011;8410;52.532;13.336;2022-11-10T05:23:02;9.17;;;2.40;;
16593;SDS011;8410;52.532;13.336;2022-11-10T05:25:49;8.23;;;2.40;;
16593;SDS011;8410;52.532;13.336;2022-11-10T05:28:17;12.97;;;5.70;;
16593;SDS011;8410;52.532;13.336;2022-11-10T05:30:44;7.07;;;2.60;;
16593;SDS011;8410;52.532;13.336;2022-11-10T05:33:12;9.10;;;2.63;;
16593;SDS011;8410;52.532;13.336;2022-11-10T05:35:39;8.60;;;3.07;;
16593;SDS011;8410;52.532;13.336;2022-11-10T05:38:07;9.37;;;3.00;;
16593;SDS011;8410;52.532;13.336;2022-11-10T05:40:34;4.63;;;2.40;;
16593;SDS011;8410;52.532;13.336;2022-11-10T05:43:03;9.93;;;2.70;;
16593;SDS011;8410;52.532;13.336;2022-11-10T05:45:31;15.80;;;2.90;;
16593;SDS011;8410;52.532;13.336;2022-11-10T05:47:58;9.77;;;2.50;;
16593;SDS011;8410;52.532;13.336;2022-11-10T05:50:26;7.27;;;2.80;;
16593;SDS011;8410;52.532;13.336;2022-11-10T05:52:54;7.87;;;2.77;;
16593;SDS011;8410;52.532;13.336;2022-11-10T05:55:22;10.43;;;2.93;;
16593;SDS011;8410;52.532;13.336;2022-11-10T05:57:52;7.70;;;3.60;;
16593;SDS011;8410;52.532;13.336;2022-11-10T06:00:23;10.20;;;3.47;;
16593;SDS011;8410;52.532;13.336;2022-11-10T06:02:58;12.03;;;3.80;;
16593;SDS011;8410;52.532;13.336;2022-11-10T06:05:27;11.03;;;7.37;;
16593;SDS011;8410;52.532;13.336;2022-11-10T06:07:57;10.63;;;3.53;;
16593;SDS011;8410;52.532;13.336;2022-11-10T06:10:24;8.67;;;3.20;;
16593;SDS011;8410;52.532;13.336;2022-11-10T06:12:52;9.83;;;3.23;;
16593;SDS011;8410;52.532;13.336;2022-11-10T06:15:20;8.63;;;3.03;;
16593;SDS011;8410;52.532;13.336;2022-11-10T06:17:50;13.00;;;3.90;;
16593;SDS011;8410;52.532;13.336;2022-11-10T06:20:18;8.40;;;3.27;;
16593;SDS011;8410;52.532;13.336;2022-11-10T06:22:55;8.97;;;3.40;;
16593;SDS011;8410;52.532;13.336;2022-11-10T06:25:26;5.87;;;2.70;;
16593;SDS011;8410;52.532;13.336;2022-11-10T06:27:54;6.57;;;2.83;;
16593;SDS011;8410;52.532;13.336;2022-11-10T06:30:23;12.07;;;3.20;;
16593;SDS011;8410;52.532;13.336;2022-11-10T06:32:52;8.93;;;3.43;;
16593;SDS011;8410;52.532;13.336;2022-11-10T06:35:20;10.30;;;3.93;;
16593;SDS011;8410;52.532;13.336;2022-11-10T06:37:58;10.40;;;4.10;;
16593;SDS011;8410;52.532;13.336;2022-11-10T06:40:27;10.70;;;3.10;;
16593;SDS011;8410;52.532;13.336;2022-11-10T06:42:55;7.90;;;3.80;;
16593;SDS011;8410;52.532;13.336;2022-11-10T06:45:23;9.67;;;4.63;;
16593;SDS011;8410;52.532;13.336;2022-11-10T06:48:01;10.30;;;4.47;;
16593;SDS011;8410;52.532;13.336;2022-11-10T06:50:30;11.80;;;4.53;;
16593;SDS011;8410;52.532;13.336;2022-11-10T06:52:58;7.50;;;3.43;;
16593;SDS011;8410;52.532;13.336;2022-11-10T06:55:26;10.07;;;3.70;;
16593;SDS011;8410;52.532;13.336;2022-11-10T06:57:54;9.93;;;3.43;;
16593;SDS011;8410;52.532;13.336;2022-11-10T07:00:22;7.30;;;3.60;;
16593;SDS011;8410;52.532;13.336;2022-11-10T07:02:57;7.80;;;3.30;;
16593;SDS011;8410;52.532;13.336;2022-11-10T07:05:26;10.40;;;3.13;;
16593;SDS011;8410;52.532;13.336;2022-11-10T07:07:54;12.63;;;6.33;;
16593;SDS011;8410;52.532;13.336;2022-11-10T07:10:22;9.77;;;3.70;;
16593;SDS011;8410;52.532;13.336;2022-11-10T07:12:54;9.70;;;3.27;;
16593;SDS011;8410;52.532;13.336;2022-11-10T07:15:22;8.03;;;3.70;;
16593;SDS011;8410;52.532;13.336;2022-11-10T07:17:49;9.20;;;3.77;;
16593;SDS011;8410;52.532;13.336;2022-11-10T07:20:17;8.17;;;3.37;;
16593;SDS011;8410;52.532;13.336;2022-11-10T07:22:46;9.10;;;3.43;;
16593;SDS011;8410;52.532;13.336;2022-11-10T07:25:14;8.77;;;3.50;;
16593;SDS011;8410;52.532;13.336;2022-11-10T07:27:41;9.30;;;4.37;;
16593;SDS011;8410;52.532;13.336;2022-11-10T07:30:09;10.07;;;3.80;;
16593;SDS011;8410;52.532;13.336;2022-11-10T07:32:37;7.70;;;3.07;;
16593;SDS011;8410;52.532;13.336;2022-11-10T07:35:05;9.00;;;3.00;;
16593;SDS011;8410;52.532;13.336;2022-11-10T07:37:32;9.03;;;3.30;;
16593;SDS011;8410;52.532;13.336;2022-11-10T07:40:01;9.10;;;3.43;;
16593;SDS011;8410;52.532;13.336;2022-11-10T07:42:29;10.07;;;3.30;;
16593;SDS011;8410;52.532;13.336;2022-11-10T07:44:57;10.30;;;3.53;;
16593;SDS011;8410;52.532;13.336;2022-11-10T07:47:24;6.80;;;3.27;;
16593;SDS011;8410;52.532;13.336;2022-11-10T07:49:52;13.20;;;3.77;;
16593;SDS011;8410;52.532;13.336;2022-11-10T07:52:19;9.33;;;3.93;;
16593;SDS011;8410;52.532;13.336;2022-11-10T07:54:46;10.53;;;3.50;;
16593;SDS011;8410;52.532;13.336;2022-11-10T07:57:15;12.17;;;6.03;;
16593;SDS011;8410;52.532;13.336;2022-11-10T07:59:43;8.90;;;4.30;;
16593;SDS011;8410;52.532;13.336;2022-11-10T08:02:10;17.00;;;8.93;;
16593;SDS011;8410;52.532;13.336;2022-11-10T08:04:38;15.93;;;7.67;;
16593;SDS011;8410;52.532;13.336;2022-11-10T08:07:05;9.73;;;5.80;;
16593;SDS011;8410;52.532;13.336;2022-11-10T08:09:33;9.97;;;4.50;;
16593;SDS011;8410;52.532;13.336;2022-11-10T08:12:00;11.73;;;4.57;;
16593;SDS011;8410;52.532;13.336;2022-11-10T08:14:29;13.00;;;4.70;;
16593;SDS011;8410;52.532;13.336;2022-11-10T08:16:56;10.93;;;3.90;;
16593;SDS011;8410;52.532;13.336;2022-11-10T08:19:24;15.17;;;4.10;;
16593;SDS011;8410;52.532;13.336;2022-11-10T08:21:52;8.30;;;3.60;;
16593;SDS011;8410;52.532;13.336;2022-11-10T08:24:19;10.57;;;4.63;;
16593;SDS011;8410;52.532;13.336;2022-11-10T08:26:46;10.90;;;3.53;;
16593;SDS011;8410;52.532;13.336;2022-11-10T08:29:14;12.77;;;4.07;;
16593;SDS011;8410;52.532;13.336;2022-11-10T08:31:43;10.63;;;3.47;;
16593;SDS011;8410;52.532;13.336;2022-11-10T08:34:10;9.77;;;3.20;;
16593;SDS011;8410;52.532;13.336;2022-11-10T08:36:38;9.10;;;3.20;;
16593;SDS011;8410;52.532;13.336;2022-11-10T08:39:05;9.63;;;3.50;;
16593;SDS011;8410;52.532;13.336;2022-11-10T08:41:33;12.57;;;4.40;;
16593;SDS011;8410;52.532;13.336;2022-11-10T08:44:00;9.77;;;3.60;;
16593;SDS011;8410;52.532;13.336;2022-11-10T08:46:27;8.80;;;3.60;;
16593;SDS011;8410;52.532;13.336;2022-11-10T08:48:56;10.13;;;3.63;;
16593;SDS011;8410;52.532;13.336;2022-11-10T08:51:24;15.13;;;4.87;;
16593;SDS011;8410;52.532;13.336;2022-11-10T08:53:51;11.30;;;5.17;;
16593;SDS011;8410;52.532;13.336;2022-11-10T08:56:19;11.13;;;4.23;;
16593;SDS011;8410;52.532;13.336;2022-11-10T08:58:46;13.70;;;4.37;;
16593;SDS011;8410;52.532;13.336;2022-11-10T09:01:18;10.07;;;4.20;;
16593;SDS011;8410;52.532;13.336;2022-11-10T09:03:46;12.47;;;3.80;;
16593;SDS011;8410;52.532;13.336;2022-11-10T09:06:15;13.13;;;4.10;;
16593;SDS011;8410;52.532;13.336;2022-11-10T09:08:42;9.73;;;4.30;;
16593;SDS011;8410;52.532;13.336;2022-11-10T09:11:10;12.73;;;3.93;;
16593;SDS011;8410;52.532;13.336;2022-11-10T09:13:37;10.43;;;3.63;;
16593;SDS011;8410;52.532;13.336;2022-11-10T09:16:05;12.60;;;3.83;;
16593;SDS011;8410;52.532;13.336;2022-11-10T09:18:33;16.20;;;4.23;;
16593;SDS011;8410;52.532;13.336;2022-11-10T09:21:01;9.50;;;3.83;;
16593;SDS011;8410;52.532;13.336;2022-11-10T09:23:30;11.07;;;3.43;;
16593;SDS011;8410;52.532;13.336;2022-11-10T09:25:58;10.30;;;4.30;;
16593;SDS011;8410;52.532;13.336;2022-11-10T09:28:25;15.07;;;4.40;;
16593;SDS011;8410;52.532;13.336;2022-11-10T09:30:53;10.10;;;4.03;;
16593;SDS011;8410;52.532;13.336;2022-11-10T09:33:20;12.40;;;4.00;;
16593;SDS011;8410;52.532;13.336;2022-11-10T09:35:48;12.07;;;4.27;;
16593;SDS011;8410;52.532;13.336;2022-11-10T09:38:16;7.67;;;4.17;;
16593;SDS011;8410;52.532;13.336;2022-11-10T09:40:53;9.67;;;3.60;;
16593;SDS011;8410;52.532;13.336;2022-11-10T09:43:27;12.87;;;4.00;;
16593;SDS011;8410;52.532;13.336;2022-11-10T09:46:00;14.63;;;4.47;;
16593;SDS011;8410;52.532;13.336;2022-11-10T09:48:33;13.43;;;4.43;;
16593;SDS011;8410;52.532;13.336;2022-11-10T09:51:07;13.57;;;5.07;;
16593;SDS011;8410;52.532;13.336;2022-11-10T09:53:40;9.73;;;3.80;;
16593;SDS011;8410;52.532;13.336;2022-11-10T09:56:18;8.30;;;3.77;;
16593;SDS011;8410;52.532;13.336;2022-11-10T09:58:48;11.27;;;3.87;;
16593;SDS011;8410;52.532;13.336;2022-11-10T10:01:19;14.13;;;4.53;;
16593;SDS011;8410;52.532;13.336;2022-11-10T10:03:58;13.97;;;3.97;;
16593;SDS011;8410;52.532;13.336;2022-11-10T10:06:31;14.73;;;4.93;;
16593;SDS011;8410;52.532;13.336;2022-11-10T10:09:26;10.63;;;3.53;;
16593;SDS011;8410;52.532;13.336;2022-11-10T10:12:09;12.17;;;3.80;;
16593;SDS011;8410;52.532;13.336;2022-11-10T10:14:48;9.77;;;4.00;;
16593;SDS011;8410;52.532;13.336;2022-11-10T10:17:32;15.20;;;4.50;;
16593;SDS011;8410;52.532;13.336;2022-11-10T10:20:08;11.43;;;4.13;;
16593;SDS011;8410;52.532;13.336;2022-11-10T10:22:46;9.10;;;3.30;;
16593;SDS011;8410;52.532;13.336;2022-11-10T10:25:22;9.47;;;3.67;;
16593;SDS011;8410;52.532;13.336;2022-11-10T10:27:56;11.37;;;3.87;;
16593;SDS011;8410;52.532;13.336;2022-11-10T10:30:26;12.40;;;4.20;;
16593;SDS011;8410;52.532;13.336;2022-11-10T10:32:54;9.57;;;3.77;;
16593;SDS011;8410;52.532;13.336;2022-11-10T10:35:40;9.67;;;3.50;;
16593;SDS011;8410;52.532;13.336;2022-11-10T10:38:11;11.87;;;4.13;;
16593;SDS011;8410;52.532;13.336;2022-11-10T10:40:45;12.63;;;4.37;;
16593;SDS011;8410;52.532;13.336;2022-11-10T10:43:17;11.57;;;4.50;;
16593;SDS011;8410;52.532;13.336;2022-11-10T10:45:52;9.60;;;3.33;;
16593;SDS011;8410;52.532;13.336;2022-11-10T10:48:30;10.10;;;3.80;;
16593;SDS011;8410;52.532;13.336;2022-11-10T10:50:57;13.03;;;3.93;;
16593;SDS011;8410;52.532;13.336;2022-11-10T10:53:25;10.27;;;3.33;;
16593;SDS011;8410;52.532;13.336;2022-11-10T10:55:54;8.67;;;3.20;;
16593;SDS011;8410;52.532;13.336;2022-11-10T10:58:27;10.80;;;3.67;;
16593;SDS011;8410;52.532;13.336;2022-11-10T11:00:59;12.50;;;3.27;;
16593;SDS011;8410;52.532;13.336;2022-11-10T11:03:38;8.37;;;3.30;;
16593;SDS011;8410;52.532;13.336;2022-11-10T11:06:17;8.17;;;3.30;;
16593;SDS011;8410;52.532;13.336;2022-11-10T11:08:52;14.33;;;4.97;;
16593;SDS011;8410;52.532;13.336;2022-11-10T11:11:25;9.87;;;3.93;;
16593;SDS011;8410;52.532;13.336;2022-11-10T11:14:17;8.93;;;4.23;;
16593;SDS011;8410;52.532;13.336;2022-11-10T11:16:48;10.93;;;3.90;;
16593;SDS011;8410;52.532;13.336;2022-11-10T11:19:17;9.17;;;3.77;;
16593;SDS011;8410;52.532;13.336;2022-11-10T11:21:50;11.33;;;3.80;;
16593;SDS011;8410;52.532;13.336;2022-11-10T11:24:29;8.87;;;3.10;;
16593;SDS011;8410;52.532;13.336;2022-11-10T11:27:03;9.80;;;2.93;;
16593;SDS011;8410;52.532;13.336;2022-11-10T11:29:45;12.43;;;3.37;;
16593;SDS011;8410;52.532;13.336;2022-11-10T11:32:28;10.73;;;3.27;;
16593;SDS011;8410;52.532;13.336;2022-11-10T11:35:17;9.60;;;4.00;;
16593;SDS011;8410;52.532;13.336;2022-11-10T11:37:49;10.10;;;3.10;;
16593;SDS011;8410;52.532;13.336;2022-11-10T11:40:26;8.40;;;3.50;;
16593;SDS011;8410;52.532;13.336;2022-11-10T11:43:06;12.00;;;3.87;;
16593;SDS011;8410;52.532;13.336;2022-11-10T11:45:47;13.13;;;3.53;;
16593;SDS011;8410;52.532;13.336;2022-11-10T11:48:37;9.07;;;3.20;;
16593;SDS011;8410;52.532;13.336;2022-11-10T11:51:17;10.50;;;3.13;;
16593;SDS011;8410;52.532;13.336;2022-11-10T11:53:58;10.37;;;3.47;;
16593;SDS011;8410;52.532;13.336;2022-11-10T11:56:40;10.47;;;3.63;;
16593;SDS011;8410;52.532;13.336;2022-11-10T11:59:16;8.83;;;3.47;;
16593;SDS011;8410;52.532;13.336;2022-11-10T12:01:58;10.67;;;3.10;;
16593;SDS011;8410;52.532;13.336;2022-11-10T12:04:47;10.83;;;3.23;;
16593;SDS011;8410;52.532;13.336;2022-11-10T12:07:28;10.53;;;3.80;;
16593;SDS011;8410;52.532;13.336;2022-11-10T12:10:14;7.57;;;3.00;;
16593;SDS011;8410;52.532;13.336;2022-11-10T12:12:59;13.37;;;4.07;;
16593;SDS011;8410;52.532;13.336;2022-11-10T12:15:39;7.67;;;3.27;;
16593;SDS011;8410;52.532;13.336;2022-11-10T12:18:20;10.17;;;3.90;;
16593;SDS011;8410;52.532;13.336;2022-11-10T12:20:59;8.47;;;2.73;;
16593;SDS011;8410;52.532;13.336;2022-11-10T12:23:46;9.10;;;3.10;;
16593;SDS011;8410;52.532;13.336;2022-11-10T12:26:37;7.90;;;2.70;;
16593;SDS011;8410;52.532;13.336;2022-11-10T12:29:12;7.83;;;2.97;;
16593;SDS011;8410;52.532;13.336;2022-11-10T12:31:46;11.57;;;4.03;;
16593;SDS011;8410;52.532;13.336;2022-11-10T12:34:23;13.03;;;3.30;;
16593;SDS011;8410;52.532;13.336;2022-11-10T12:36:58;13.23;;;3.50;;
16593;SDS011;8410;52.532;13.336;2022-11-10T12:39:32;6.97;;;2.63;;
16593;SDS011;8410;52.532;13.336;2022-11-10T12:42:11;8.20;;;2.80;;
16593;SDS011;8410;52.532;13.336;2022-11-10T12:44:47;9.83;;;3.10;;
16593;SDS011;8410;52.532;13.336;2022-11-10T12:47:26;8.90;;;2.60;;
16593;SDS011;8410;52.532;13.336;2022-11-10T12:50:00;6.60;;;3.40;;
16593;SDS011;8410;52.532;13.336;2022-11-10T12:52:36;7.43;;;2.30;;
16593;SDS011;8410;52.532;13.336;2022-11-10T12:55:10;8.70;;;2.70;;
16593;SDS011;8410;52.532;13.336;2022-11-10T12:57:39;7.70;;;2.37;;
16593;SDS011;8410;52.532;13.336;2022-11-10T13:00:21;9.50;;;2.63;;
16593;SDS011;8410;52.532;13.336;2022-11-10T13:02:53;13.13;;;3.00;;
16593;SDS011;8410;52.532;13.336;2022-11-10T13:08:15;7.77;;;2.97;;
16593;SDS011;8410;52.532;13.336;2022-11-10T13:10:51;9.37;;;3.10;;
16593;SDS011;8410;52.532;13.336;2022-11-10T13:13:21;7.73;;;2.63;;
16593;SDS011;8410;52.532;13.336;2022-11-10T13:15:50;10.07;;;2.43;;
16593;SDS011;8410;52.532;13.336;2022-11-10T13:18:25;12.10;;;2.93;;
16593;SDS011;8410;52.532;13.336;2022-11-10T13:24:20;9.23;;;2.43;;
16593;SDS011;8410;52.532;13.336;2022-11-10T13:26:49;7.70;;;2.50;;
16593;SDS011;8410;52.532;13.336;2022-11-10T13:29:18;10.90;;;3.23;;
16593;SDS011;8410;52.532;13.336;2022-11-10T13:31:55;9.07;;;2.53;;
16593;SDS011;8410;52.532;13.336;2022-11-10T13:40:23;8.33;;;2.60;;
16593;SDS011;8410;52.532;13.336;2022-11-10T13:43:11;8.90;;;3.37;;
16593;SDS011;8410;52.532;13.336;2022-11-10T13:45:48;12.17;;;3.10;;
16593;SDS011;8410;52.532;13.336;2022-11-10T13:48:28;11.17;;;3.07;;
16593;SDS011;8410;52.532;13.336;2022-11-10T13:51:06;8.73;;;2.43;;
16593;SDS011;8410;52.532;13.336;2022-11-10T13:53:45;6.70;;;3.10;;
16593;SDS011;8410;52.532;13.336;2022-11-10T13:56:26;11.57;;;2.53;;
16593;SDS011;8410;52.532;13.336;2022-11-10T13:59:14;10.17;;;3.00;;
16593;SDS011;8410;52.532;13.336;2022-11-10T14:01:44;11.87;;;2.67;;
16593;SDS011;8410;52.532;13.336;2022-11-10T14:07:11;11.70;;;2.70;;
16593;SDS011;8410;52.532;13.336;2022-11-10T14:09:42;11.63;;;2.80;;
16593;SDS011;8410;52.532;13.336;2022-11-10T14:12:24;9.17;;;2.33;;
16593;SDS011;8410;52.532;13.336;2022-11-10T14:14:57;9.47;;;4.30;;
16593;SDS011;8410;52.532;13.336;2022-11-10T14:17:28;16.07;;;6.90;;
16593;SDS011;8410;52.532;13.336;2022-11-10T14:19:58;11.77;;;7.20;;
16593;SDS011;8410;52.532;13.336;2022-11-10T14:22:26;9.73;;;2.93;;
16593;SDS011;8410;52.532;13.336;2022-11-10T14:24:59;9.50;;;2.93;;
16593;SDS011;8410;52.532;13.336;2022-11-10T14:27:32;13.70;;;3.13;;
16593;SDS011;8410;52.532;13.336;2022-11-10T14:30:02;7.30;;;2.73;;
16593;SDS011;8410;52.532;13.336;2022-11-10T14:32:44;11.77;;;3.37;;
16593;SDS011;8410;52.532;13.336;2022-11-10T14:35:20;10.10;;;2.40;;
16593;SDS011;8410;52.532;13.336;2022-11-10T14:37:55;11.30;;;3.40;;
16593;SDS011;8410;52.532;13.336;2022-11-10T14:40:24;7.80;;;2.60;;
16593;SDS011;8410;52.532;13.336;2022-11-10T14:42:54;13.30;;;3.43;;
16593;SDS011;8410;52.532;13.336;2022-11-10T14:45:22;11.83;;;2.97;;
16593;SDS011;8410;52.532;13.336;2022-11-10T14:47:52;5.80;;;2.20;;
16593;SDS011;8410;52.532;13.336;2022-11-10T14:50:21;9.53;;;2.90;;
16593;SDS011;8410;52.532;13.336;2022-11-10T14:52:52;8.57;;;2.70;;
16593;SDS011;8410;52.532;13.336;2022-11-10T14:55:24;8.07;;;2.77;;
16593;SDS011;8410;52.532;13.336;2022-11-10T14:57:57;12.10;;;3.37;;
16593;SDS011;8410;52.532;13.336;2022-11-10T15:00:32;14.27;;;4.60;;
16593;SDS011;8410;52.532;13.336;2022-11-10T15:03:03;9.50;;;3.70;;
16593;SDS011;8410;52.532;13.336;2022-11-10T15:05:32;7.17;;;2.87;;
16593;SDS011;8410;52.532;13.336;2022-11-10T15:08:00;8.93;;;3.50;;
16593;SDS011;8410;52.532;13.336;2022-11-10T15:10:41;6.60;;;2.30;;
16593;SDS011;8410;52.532;13.336;2022-11-10T15:13:31;7.37;;;2.67;;
16593;SDS011;8410;52.532;13.336;2022-11-10T15:16:21;8.57;;;2.57;;
16593;SDS011;8410;52.532;13.336;2022-11-10T15:18:50;8.27;;;2.53;;
16593;SDS011;8410;52.532;13.336;2022-11-10T15:21:20;14.20;;;10.20;;
16593;SDS011;8410;52.532;13.336;2022-11-10T15:23:52;16.77;;;8.73;;